sensor_id;sensor_type;location;lat;lon;timestamp;temperature;humidity
802;DHT22;383;48.766;9.270;2022-12-16T00:01:06;0.40;96.00
802;DHT22;383;48.766;9.270;2022-12-16T00:03:33;0.40;96.10
802;DHT22;383;48.766;9.270;2022-12-16T00:06:00;0.40;96.50
802;DHT22;383;48.766;9.270;2022-12-16T00:08:31;0.40;96.60
802;DHT22;383;48.766;9.270;2022-12-16T00:10:58;0.50;96.40
802;DHT22;383;48.766;9.270;2022-12-16T00:13:26;0.50;95.70
802;DHT22;383;48.766;9.270;2022-12-16T00:15:52;0.50;95.90
802;DHT22;383;48.766;9.270;2022-12-16T00:18:19;0.50;96.20
802;DHT22;383;48.766;9.270;2022-12-16T00:20:47;0.40;95.90
802;DHT22;383;48.766;9.270;2022-12-16T00:23:14;0.40;96.10
802;DHT22;383;48.766;9.270;2022-12-16T00:25:43;0.40;96.70
802;DHT22;383;48.766;9.270;2022-12-16T00:28:11;0.40;96.50
802;DHT22;383;48.766;9.270;2022-12-16T00:30:38;0.50;96.50
802;DHT22;383;48.766;9.270;2022-12-16T00:33:05;0.50;96.70
802;DHT22;383;48.766;9.270;2022-12-16T00:35:32;0.50;96.90
802;DHT22;383;48.766;9.270;2022-12-16T00:38:00;0.60;96.80
802;DHT22;383;48.766;9.270;2022-12-16T00:40:27;0.60;96.80
802;DHT22;383;48.766;9.270;2022-12-16T00:42:56;0.60;97.00
802;DHT22;383;48.766;9.270;2022-12-16T00:45:23;0.70;96.90
802;DHT22;383;48.766;9.270;2022-12-16T00:47:50;0.70;97.00
802;DHT22;383;48.766;9.270;2022-12-16T00:50:17;0.70;96.40
802;DHT22;383;48.766;9.270;2022-12-16T00:52:45;0.70;96.20
802;DHT22;383;48.766;9.270;2022-12-16T00:55:12;0.70;95.60
802;DHT22;383;48.766;9.270;2022-12-16T00:57:39;0.60;95.90
802;DHT22;383;48.766;9.270;2022-12-16T01:00:09;0.50;96.50
802;DHT22;383;48.766;9.270;2022-12-16T01:02:38;0.50;96.80
802;DHT22;383;48.766;9.270;2022-12-16T01:05:05;0.50;96.60
802;DHT22;383;48.766;9.270;2022-12-16T01:07:32;0.50;96.90
802;DHT22;383;48.766;9.270;2022-12-16T01:09:59;0.50;96.80
802;DHT22;383;48.766;9.270;2022-12-16T01:12:26;0.50;96.70
802;DHT22;383;48.766;9.270;2022-12-16T01:14:52;0.50;97.10
802;DHT22;383;48.766;9.270;2022-12-16T01:17:21;0.40;97.10
802;DHT22;383;48.766;9.270;2022-12-16T01:19:50;0.40;97.30
802;DHT22;383;48.766;9.270;2022-12-16T01:22:17;0.50;97.20
802;DHT22;383;48.766;9.270;2022-12-16T01:24:44;0.50;96.80
802;DHT22;383;48.766;9.270;2022-12-16T01:27:11;0.50;96.90
802;DHT22;383;48.766;9.270;2022-12-16T01:29:38;0.50;96.80
802;DHT22;383;48.766;9.270;2022-12-16T01:32:05;0.60;96.70
802;DHT22;383;48.766;9.270;2022-12-16T01:34:33;0.50;96.20
802;DHT22;383;48.766;9.270;2022-12-16T01:37:00;0.40;96.30
802;DHT22;383;48.766;9.270;2022-12-16T01:39:26;0.30;97.20
802;DHT22;383;48.766;9.270;2022-12-16T01:41:54;0.30;97.30
802;DHT22;383;48.766;9.270;2022-12-16T01:44:23;0.30;97.80
802;DHT22;383;48.766;9.270;2022-12-16T01:46:53;0.30;98.00
802;DHT22;383;48.766;9.270;2022-12-16T01:49:23;0.40;97.90
802;DHT22;383;48.766;9.270;2022-12-16T01:51:56;0.40;97.70
802;DHT22;383;48.766;9.270;2022-12-16T01:54:27;0.40;97.90
802;DHT22;383;48.766;9.270;2022-12-16T01:56:59;0.50;97.50
802;DHT22;383;48.766;9.270;2022-12-16T01:59:30;0.40;97.60
802;DHT22;383;48.766;9.270;2022-12-16T02:01:57;0.50;97.10
802;DHT22;383;48.766;9.270;2022-12-16T02:04:24;0.60;96.50
802;DHT22;383;48.766;9.270;2022-12-16T02:06:53;0.50;95.90
802;DHT22;383;48.766;9.270;2022-12-16T02:09:20;0.50;96.20
802;DHT22;383;48.766;9.270;2022-12-16T02:11:59;0.50;97.10
802;DHT22;383;48.766;9.270;2022-12-16T02:17:43;0.50;97.20
802;DHT22;383;48.766;9.270;2022-12-16T02:23:34;0.60;96.90
802;DHT22;383;48.766;9.270;2022-12-16T02:26:25;0.60;96.90
802;DHT22;383;48.766;9.270;2022-12-16T02:29:10;0.60;96.80
802;DHT22;383;48.766;9.270;2022-12-16T02:31:46;0.60;96.50
802;DHT22;383;48.766;9.270;2022-12-16T02:34:20;0.50;96.50
802;DHT22;383;48.766;9.270;2022-12-16T02:36:59;0.60;96.40
802;DHT22;383;48.766;9.270;2022-12-16T02:39:30;0.60;95.90
802;DHT22;383;48.766;9.270;2022-12-16T02:42:05;0.50;95.90
802;DHT22;383;48.766;9.270;2022-12-16T02:44:38;0.40;95.90
802;DHT22;383;48.766;9.270;2022-12-16T02:47:06;0.40;96.30
802;DHT22;383;48.766;9.270;2022-12-16T02:49:45;0.40;96.50
802;DHT22;383;48.766;9.270;2022-12-16T02:52:13;0.40;96.00
802;DHT22;383;48.766;9.270;2022-12-16T02:54:40;0.40;96.20
802;DHT22;383;48.766;9.270;2022-12-16T02:57:15;0.30;96.00
802;DHT22;383;48.766;9.270;2022-12-16T02:59:52;0.30;96.20
802;DHT22;383;48.766;9.270;2022-12-16T03:02:26;0.40;96.00
802;DHT22;383;48.766;9.270;2022-12-16T03:05:00;0.30;96.30
802;DHT22;383;48.766;9.270;2022-12-16T03:07:30;0.40;96.70
802;DHT22;383;48.766;9.270;2022-12-16T03:10:00;0.40;96.70
802;DHT22;383;48.766;9.270;2022-12-16T03:12:27;0.40;96.80
802;DHT22;383;48.766;9.270;2022-12-16T03:14:54;0.50;96.50
802;DHT22;383;48.766;9.270;2022-12-16T03:17:24;0.50;96.60
802;DHT22;383;48.766;9.270;2022-12-16T03:19:56;0.50;96.80
802;DHT22;383;48.766;9.270;2022-12-16T03:22:27;0.50;96.90
802;DHT22;383;48.766;9.270;2022-12-16T03:24:54;0.50;96.50
802;DHT22;383;48.766;9.270;2022-12-16T03:27:28;0.60;96.40
802;DHT22;383;48.766;9.270;2022-12-16T03:30:02;0.70;96.30
802;DHT22;383;48.766;9.270;2022-12-16T03:32:35;0.70;96.20
802;DHT22;383;48.766;9.270;2022-12-16T03:35:11;0.70;95.40
802;DHT22;383;48.766;9.270;2022-12-16T03:37:39;0.70;95.50
802;DHT22;383;48.766;9.270;2022-12-16T03:40:09;0.60;95.80
802;DHT22;383;48.766;9.270;2022-12-16T03:42:37;0.60;96.40
802;DHT22;383;48.766;9.270;2022-12-16T03:45:06;0.60;96.50
802;DHT22;383;48.766;9.270;2022-12-16T03:47:38;0.70;96.70
802;DHT22;383;48.766;9.270;2022-12-16T03:50:05;0.70;96.50
802;DHT22;383;48.766;9.270;2022-12-16T03:52:33;0.70;96.40
802;DHT22;383;48.766;9.270;2022-12-16T03:55:00;0.60;96.60
802;DHT22;383;48.766;9.270;2022-12-16T03:57:27;0.70;96.30
802;DHT22;383;48.766;9.270;2022-12-16T03:59:53;0.80;95.70
802;DHT22;383;48.766;9.270;2022-12-16T04:02:20;0.80;95.20
802;DHT22;383;48.766;9.270;2022-12-16T04:04:48;0.80;94.70
802;DHT22;383;48.766;9.270;2022-12-16T04:07:15;0.70;94.90
802;DHT22;383;48.766;9.270;2022-12-16T04:09:49;0.70;95.00
802;DHT22;383;48.766;9.270;2022-12-16T04:12:17;0.70;94.50
802;DHT22;383;48.766;9.270;2022-12-16T04:15:01;0.70;94.50
802;DHT22;383;48.766;9.270;2022-12-16T04:17:57;0.70;94.50
802;DHT22;383;48.766;9.270;2022-12-16T04:20:45;0.60;94.50
802;DHT22;383;48.766;9.270;2022-12-16T04:23:31;0.50;94.60
802;DHT22;383;48.766;9.270;2022-12-16T04:26:16;0.40;95.10
802;DHT22;383;48.766;9.270;2022-12-16T04:28:43;0.40;95.00
802;DHT22;383;48.766;9.270;2022-12-16T04:31:10;0.40;95.00
802;DHT22;383;48.766;9.270;2022-12-16T04:33:37;0.30;95.30
802;DHT22;383;48.766;9.270;2022-12-16T04:36:23;0.30;95.70
802;DHT22;383;48.766;9.270;2022-12-16T04:39:07;0.40;95.50
802;DHT22;383;48.766;9.270;2022-12-16T04:41:51;0.30;95.40
802;DHT22;383;48.766;9.270;2022-12-16T04:44:36;0.30;94.70
802;DHT22;383;48.766;9.270;2022-12-16T04:47:31;0.30;94.70
802;DHT22;383;48.766;9.270;2022-12-16T04:50:15;0.20;95.20
802;DHT22;383;48.766;9.270;2022-12-16T04:53:01;0.10;95.30
802;DHT22;383;48.766;9.270;2022-12-16T04:55:45;0.10;95.10
802;DHT22;383;48.766;9.270;2022-12-16T04:58:29;0.00;95.10
802;DHT22;383;48.766;9.270;2022-12-16T05:01:10;0.00;95.50
802;DHT22;383;48.766;9.270;2022-12-16T05:03:54;-0.10;95.50
802;DHT22;383;48.766;9.270;2022-12-16T05:06:38;-0.10;95.90
802;DHT22;383;48.766;9.270;2022-12-16T05:09:23;0.00;96.10
802;DHT22;383;48.766;9.270;2022-12-16T05:12:07;0.00;96.10
802;DHT22;383;48.766;9.270;2022-12-16T05:14:52;0.10;95.50
802;DHT22;383;48.766;9.270;2022-12-16T05:17:36;0.00;95.40
802;DHT22;383;48.766;9.270;2022-12-16T05:20:20;0.10;95.10
802;DHT22;383;48.766;9.270;2022-12-16T05:23:04;0.00;95.50
802;DHT22;383;48.766;9.270;2022-12-16T05:25:49;0.00;95.40
802;DHT22;383;48.766;9.270;2022-12-16T05:28:33;0.00;95.80
802;DHT22;383;48.766;9.270;2022-12-16T05:31:17;0.00;95.60
802;DHT22;383;48.766;9.270;2022-12-16T05:34:01;0.00;95.70
802;DHT22;383;48.766;9.270;2022-12-16T05:36:46;0.10;95.60
802;DHT22;383;48.766;9.270;2022-12-16T05:39:30;0.10;95.30
802;DHT22;383;48.766;9.270;2022-12-16T05:42:20;0.00;95.40
802;DHT22;383;48.766;9.270;2022-12-16T05:45:05;0.10;95.50
802;DHT22;383;48.766;9.270;2022-12-16T05:47:50;0.10;95.60
802;DHT22;383;48.766;9.270;2022-12-16T05:50:34;0.10;95.60
802;DHT22;383;48.766;9.270;2022-12-16T05:53:18;0.20;95.30
802;DHT22;383;48.766;9.270;2022-12-16T05:56:02;0.20;95.60
802;DHT22;383;48.766;9.270;2022-12-16T05:58:48;0.20;95.60
802;DHT22;383;48.766;9.270;2022-12-16T06:01:32;0.20;95.20
802;DHT22;383;48.766;9.270;2022-12-16T06:04:16;0.30;95.30
802;DHT22;383;48.766;9.270;2022-12-16T06:07:00;0.20;95.20
802;DHT22;383;48.766;9.270;2022-12-16T06:09:44;0.10;95.50
802;DHT22;383;48.766;9.270;2022-12-16T06:12:29;0.20;95.60
802;DHT22;383;48.766;9.270;2022-12-16T06:15:14;0.30;95.20
802;DHT22;383;48.766;9.270;2022-12-16T06:17:58;0.20;95.00
802;DHT22;383;48.766;9.270;2022-12-16T06:20:42;0.20;95.30
802;DHT22;383;48.766;9.270;2022-12-16T06:23:26;0.10;95.60
802;DHT22;383;48.766;9.270;2022-12-16T06:26:11;0.10;95.30
802;DHT22;383;48.766;9.270;2022-12-16T06:28:55;0.10;95.60
802;DHT22;383;48.766;9.270;2022-12-16T06:31:41;0.10;95.30
802;DHT22;383;48.766;9.270;2022-12-16T06:34:25;0.10;95.00
802;DHT22;383;48.766;9.270;2022-12-16T06:37:09;0.00;95.30
802;DHT22;383;48.766;9.270;2022-12-16T06:40:02;0.00;95.30
802;DHT22;383;48.766;9.270;2022-12-16T06:42:47;-0.10;95.00
802;DHT22;383;48.766;9.270;2022-12-16T06:45:31;-0.10;95.40
802;DHT22;383;48.766;9.270;2022-12-16T06:48:16;0.00;95.30
802;DHT22;383;48.766;9.270;2022-12-16T06:51:00;0.10;94.80
802;DHT22;383;48.766;9.270;2022-12-16T06:53:45;0.00;94.50
802;DHT22;383;48.766;9.270;2022-12-16T06:56:29;0.00;94.50
802;DHT22;383;48.766;9.270;2022-12-16T06:59:12;0.00;94.60
802;DHT22;383;48.766;9.270;2022-12-16T07:01:57;0.00;94.60
802;DHT22;383;48.766;9.270;2022-12-16T07:04:42;0.00;94.30
802;DHT22;383;48.766;9.270;2022-12-16T07:07:26;0.10;94.20
802;DHT22;383;48.766;9.270;2022-12-16T07:10:10;0.10;94.10
802;DHT22;383;48.766;9.270;2022-12-16T07:12:56;0.20;93.70
802;DHT22;383;48.766;9.270;2022-12-16T07:15:41;0.10;93.90
802;DHT22;383;48.766;9.270;2022-12-16T07:18:25;0.10;93.70
802;DHT22;383;48.766;9.270;2022-12-16T07:21:10;0.00;94.10
802;DHT22;383;48.766;9.270;2022-12-16T07:23:54;0.00;94.40
802;DHT22;383;48.766;9.270;2022-12-16T07:26:39;0.00;94.60
802;DHT22;383;48.766;9.270;2022-12-16T07:29:23;0.10;94.70
802;DHT22;383;48.766;9.270;2022-12-16T07:32:07;0.10;94.40
802;DHT22;383;48.766;9.270;2022-12-16T07:34:47;0.10;94.30
802;DHT22;383;48.766;9.270;2022-12-16T07:37:33;0.10;94.60
802;DHT22;383;48.766;9.270;2022-12-16T07:40:19;0.10;94.20
802;DHT22;383;48.766;9.270;2022-12-16T07:43:03;0.10;94.00
802;DHT22;383;48.766;9.270;2022-12-16T07:45:47;0.00;94.60
802;DHT22;383;48.766;9.270;2022-12-16T07:48:31;0.00;94.90
802;DHT22;383;48.766;9.270;2022-12-16T07:51:15;0.10;94.50
802;DHT22;383;48.766;9.270;2022-12-16T07:54:01;0.10;94.30
802;DHT22;383;48.766;9.270;2022-12-16T07:56:45;0.20;94.10
802;DHT22;383;48.766;9.270;2022-12-16T07:59:29;0.30;94.00
802;DHT22;383;48.766;9.270;2022-12-16T08:02:13;0.20;93.60
802;DHT22;383;48.766;9.270;2022-12-16T08:04:58;0.20;92.90
802;DHT22;383;48.766;9.270;2022-12-16T08:07:42;0.30;92.80
802;DHT22;383;48.766;9.270;2022-12-16T08:10:36;0.30;92.20
802;DHT22;383;48.766;9.270;2022-12-16T08:13:20;0.30;92.40
802;DHT22;383;48.766;9.270;2022-12-16T08:16:04;0.30;92.60
802;DHT22;383;48.766;9.270;2022-12-16T08:18:49;0.40;92.40
802;DHT22;383;48.766;9.270;2022-12-16T08:21:33;0.40;92.10
802;DHT22;383;48.766;9.270;2022-12-16T08:24:17;0.40;92.30
802;DHT22;383;48.766;9.270;2022-12-16T08:27:02;0.40;92.30
802;DHT22;383;48.766;9.270;2022-12-16T08:29:46;0.50;91.90
802;DHT22;383;48.766;9.270;2022-12-16T08:32:30;0.50;91.80
802;DHT22;383;48.766;9.270;2022-12-16T08:35:15;0.60;91.60
802;DHT22;383;48.766;9.270;2022-12-16T08:37:59;0.70;90.70
802;DHT22;383;48.766;9.270;2022-12-16T08:40:44;0.80;90.40
802;DHT22;383;48.766;9.270;2022-12-16T08:46:05;0.90;88.90
802;DHT22;383;48.766;9.270;2022-12-16T08:52:10;1.10;88.80
802;DHT22;383;48.766;9.270;2022-12-16T08:54:55;1.10;88.50
802;DHT22;383;48.766;9.270;2022-12-16T08:57:39;1.20;87.40
802;DHT22;383;48.766;9.270;2022-12-16T09:00:23;1.20;87.30
802;DHT22;383;48.766;9.270;2022-12-16T09:03:20;1.10;87.40
802;DHT22;383;48.766;9.270;2022-12-16T09:06:04;1.10;87.20
802;DHT22;383;48.766;9.270;2022-12-16T09:08:48;1.00;87.40
802;DHT22;383;48.766;9.270;2022-12-16T09:11:33;1.00;87.40
802;DHT22;383;48.766;9.270;2022-12-16T09:14:17;1.00;87.60
802;DHT22;383;48.766;9.270;2022-12-16T09:17:01;1.00;87.40
802;DHT22;383;48.766;9.270;2022-12-16T09:19:47;1.10;86.50
802;DHT22;383;48.766;9.270;2022-12-16T09:22:31;1.00;86.10
802;DHT22;383;48.766;9.270;2022-12-16T09:25:15;1.00;86.10
802;DHT22;383;48.766;9.270;2022-12-16T09:27:59;1.00;86.10
802;DHT22;383;48.766;9.270;2022-12-16T09:30:43;1.10;84.70
802;DHT22;383;48.766;9.270;2022-12-16T09:33:27;1.00;84.80
802;DHT22;383;48.766;9.270;2022-12-16T09:36:13;1.00;84.10
802;DHT22;383;48.766;9.270;2022-12-16T09:38:57;1.10;85.10
802;DHT22;383;48.766;9.270;2022-12-16T09:41:43;1.20;84.10
802;DHT22;383;48.766;9.270;2022-12-16T09:44:38;1.10;83.40
802;DHT22;383;48.766;9.270;2022-12-16T09:47:32;1.00;81.90
802;DHT22;383;48.766;9.270;2022-12-16T09:50:19;0.80;82.80
802;DHT22;383;48.766;9.270;2022-12-16T09:53:09;0.80;84.50
802;DHT22;383;48.766;9.270;2022-12-16T09:55:54;0.90;84.10
802;DHT22;383;48.766;9.270;2022-12-16T09:58:42;1.00;83.70
802;DHT22;383;48.766;9.270;2022-12-16T10:01:29;1.00;82.70
802;DHT22;383;48.766;9.270;2022-12-16T10:04:17;1.00;81.40
802;DHT22;383;48.766;9.270;2022-12-16T10:07:01;0.80;82.30
802;DHT22;383;48.766;9.270;2022-12-16T10:09:54;0.80;84.30
802;DHT22;383;48.766;9.270;2022-12-16T10:12:45;0.90;84.70
802;DHT22;383;48.766;9.270;2022-12-16T10:15:50;1.00;83.40
802;DHT22;383;48.766;9.270;2022-12-16T10:18:40;1.10;83.10
802;DHT22;383;48.766;9.270;2022-12-16T10:21:47;1.10;80.70
802;DHT22;383;48.766;9.270;2022-12-16T10:24:40;1.20;80.60
802;DHT22;383;48.766;9.270;2022-12-16T10:27:33;1.20;81.90
802;DHT22;383;48.766;9.270;2022-12-16T10:30:20;1.20;83.20
802;DHT22;383;48.766;9.270;2022-12-16T10:33:08;1.30;83.90
802;DHT22;383;48.766;9.270;2022-12-16T10:35:53;1.50;83.10
802;DHT22;383;48.766;9.270;2022-12-16T10:38:40;1.50;82.00
802;DHT22;383;48.766;9.270;2022-12-16T10:41:31;1.70;80.00
802;DHT22;383;48.766;9.270;2022-12-16T10:44:21;1.70;79.40
802;DHT22;383;48.766;9.270;2022-12-16T10:47:06;1.80;79.00
802;DHT22;383;48.766;9.270;2022-12-16T10:49:55;1.80;79.90
802;DHT22;383;48.766;9.270;2022-12-16T10:52:54;1.80;79.30
802;DHT22;383;48.766;9.270;2022-12-16T10:55:49;1.80;79.10
802;DHT22;383;48.766;9.270;2022-12-16T10:58:41;1.70;78.50
802;DHT22;383;48.766;9.270;2022-12-16T11:01:29;1.70;79.10
802;DHT22;383;48.766;9.270;2022-12-16T11:04:30;1.70;79.30
802;DHT22;383;48.766;9.270;2022-12-16T11:07:26;1.70;79.40
802;DHT22;383;48.766;9.270;2022-12-16T11:10:33;1.70;78.50
802;DHT22;383;48.766;9.270;2022-12-16T11:13:21;1.60;78.50
802;DHT22;383;48.766;9.270;2022-12-16T11:16:12;1.50;77.80
802;DHT22;383;48.766;9.270;2022-12-16T11:18:58;1.40;78.90
802;DHT22;383;48.766;9.270;2022-12-16T11:21:43;1.40;78.20
802;DHT22;383;48.766;9.270;2022-12-16T11:24:27;1.40;77.80
802;DHT22;383;48.766;9.270;2022-12-16T11:27:22;1.40;78.90
802;DHT22;383;48.766;9.270;2022-12-16T11:30:19;1.50;78.60
802;DHT22;383;48.766;9.270;2022-12-16T11:33:13;1.50;79.10
802;DHT22;383;48.766;9.270;2022-12-16T11:36:08;1.60;76.90
802;DHT22;383;48.766;9.270;2022-12-16T11:38:54;1.70;77.90
802;DHT22;383;48.766;9.270;2022-12-16T11:41:40;1.70;76.60
802;DHT22;383;48.766;9.270;2022-12-16T11:44:28;1.70;76.50
802;DHT22;383;48.766;9.270;2022-12-16T11:47:19;1.70;77.50
802;DHT22;383;48.766;9.270;2022-12-16T11:50:09;1.80;77.70
802;DHT22;383;48.766;9.270;2022-12-16T11:52:56;1.80;77.90
802;DHT22;383;48.766;9.270;2022-12-16T11:55:43;2.00;76.60
802;DHT22;383;48.766;9.270;2022-12-16T11:58:34;2.10;75.80
802;DHT22;383;48.766;9.270;2022-12-16T12:01:24;2.20;74.50
802;DHT22;383;48.766;9.270;2022-12-16T12:04:10;2.40;74.10
802;DHT22;383;48.766;9.270;2022-12-16T12:07:04;2.40;75.20
802;DHT22;383;48.766;9.270;2022-12-16T12:10:01;2.40;75.40
802;DHT22;383;48.766;9.270;2022-12-16T12:12:56;2.50;74.20
802;DHT22;383;48.766;9.270;2022-12-16T12:15:45;2.40;74.50
802;DHT22;383;48.766;9.270;2022-12-16T12:18:37;2.40;74.60
802;DHT22;383;48.766;9.270;2022-12-16T12:21:25;2.40;73.20
802;DHT22;383;48.766;9.270;2022-12-16T12:24:19;2.40;73.60
802;DHT22;383;48.766;9.270;2022-12-16T12:27:22;2.40;74.10
802;DHT22;383;48.766;9.270;2022-12-16T12:30:11;2.40;74.10
802;DHT22;383;48.766;9.270;2022-12-16T12:33:05;2.30;72.60
802;DHT22;383;48.766;9.270;2022-12-16T12:36:01;2.10;72.10
802;DHT22;383;48.766;9.270;2022-12-16T12:38:56;2.00;73.30
802;DHT22;383;48.766;9.270;2022-12-16T12:42:07;1.90;72.90
802;DHT22;383;48.766;9.270;2022-12-16T12:45:05;1.60;73.20
802;DHT22;383;48.766;9.270;2022-12-16T12:47:59;1.60;75.60
802;DHT22;383;48.766;9.270;2022-12-16T12:50:52;1.60;74.00
802;DHT22;383;48.766;9.270;2022-12-16T12:53:43;1.60;74.60
802;DHT22;383;48.766;9.270;2022-12-16T12:56:36;1.50;74.80
802;DHT22;383;48.766;9.270;2022-12-16T12:59:30;1.50;75.60
802;DHT22;383;48.766;9.270;2022-12-16T13:02:24;1.40;75.60
802;DHT22;383;48.766;9.270;2022-12-16T13:05:12;1.30;76.70
802;DHT22;383;48.766;9.270;2022-12-16T13:11:13;1.30;75.80
802;DHT22;383;48.766;9.270;2022-12-16T13:13:58;1.30;75.80
802;DHT22;383;48.766;9.270;2022-12-16T13:17:03;1.30;76.30
802;DHT22;383;48.766;9.270;2022-12-16T13:19:56;1.40;77.90
802;DHT22;383;48.766;9.270;2022-12-16T13:22:42;1.50;76.00
802;DHT22;383;48.766;9.270;2022-12-16T13:25:39;1.60;74.40
802;DHT22;383;48.766;9.270;2022-12-16T13:28:24;1.50;74.60
802;DHT22;383;48.766;9.270;2022-12-16T13:31:09;1.50;75.00
802;DHT22;383;48.766;9.270;2022-12-16T13:33:54;1.50;74.40
802;DHT22;383;48.766;9.270;2022-12-16T13:36:43;1.40;72.90
802;DHT22;383;48.766;9.270;2022-12-16T13:39:29;1.20;73.80
802;DHT22;383;48.766;9.270;2022-12-16T13:42:51;1.20;74.20
802;DHT22;383;48.766;9.270;2022-12-16T13:45:39;1.10;75.80
802;DHT22;383;48.766;9.270;2022-12-16T13:48:35;1.10;77.00
802;DHT22;383;48.766;9.270;2022-12-16T13:51:57;1.10;77.00
802;DHT22;383;48.766;9.270;2022-12-16T13:54:48;1.20;76.30
802;DHT22;383;48.766;9.270;2022-12-16T13:57:36;1.20;76.60
802;DHT22;383;48.766;9.270;2022-12-16T14:00:25;1.20;76.30
802;DHT22;383;48.766;9.270;2022-12-16T14:03:17;1.20;77.10
802;DHT22;383;48.766;9.270;2022-12-16T14:06:05;1.30;77.90
802;DHT22;383;48.766;9.270;2022-12-16T14:08:53;1.20;78.10
802;DHT22;383;48.766;9.270;2022-12-16T14:11:45;1.30;77.50
802;DHT22;383;48.766;9.270;2022-12-16T14:14:34;1.20;78.60
802;DHT22;383;48.766;9.270;2022-12-16T14:17:27;1.30;78.50
802;DHT22;383;48.766;9.270;2022-12-16T14:20:20;1.30;77.40
802;DHT22;383;48.766;9.270;2022-12-16T14:23:22;1.30;78.10
802;DHT22;383;48.766;9.270;2022-12-16T14:26:11;1.30;78.30
802;DHT22;383;48.766;9.270;2022-12-16T14:28:56;1.40;77.10
802;DHT22;383;48.766;9.270;2022-12-16T14:31:42;1.30;77.00
802;DHT22;383;48.766;9.270;2022-12-16T14:34:27;1.30;77.70
802;DHT22;383;48.766;9.270;2022-12-16T14:37:13;1.30;78.70
802;DHT22;383;48.766;9.270;2022-12-16T14:39:57;1.30;76.90
802;DHT22;383;48.766;9.270;2022-12-16T14:42:43;1.40;76.60
802;DHT22;383;48.766;9.270;2022-12-16T14:45:30;1.30;77.90
802;DHT22;383;48.766;9.270;2022-12-16T14:48:23;1.30;77.90
802;DHT22;383;48.766;9.270;2022-12-16T14:51:21;1.20;77.40
802;DHT22;383;48.766;9.270;2022-12-16T14:54:18;1.20;77.90
802;DHT22;383;48.766;9.270;2022-12-16T14:57:03;1.20;78.20
802;DHT22;383;48.766;9.270;2022-12-16T15:00:00;1.20;77.80
802;DHT22;383;48.766;9.270;2022-12-16T15:02:46;1.10;78.60
802;DHT22;383;48.766;9.270;2022-12-16T15:05:34;1.10;78.60
802;DHT22;383;48.766;9.270;2022-12-16T15:08:21;1.20;78.10
802;DHT22;383;48.766;9.270;2022-12-16T15:11:09;1.20;77.80
802;DHT22;383;48.766;9.270;2022-12-16T15:13:59;1.10;77.50
802;DHT22;383;48.766;9.270;2022-12-16T15:16:46;1.10;78.90
802;DHT22;383;48.766;9.270;2022-12-16T15:19:37;1.10;79.30
802;DHT22;383;48.766;9.270;2022-12-16T15:22:23;1.10;79.00
802;DHT22;383;48.766;9.270;2022-12-16T15:25:05;1.10;78.50
802;DHT22;383;48.766;9.270;2022-12-16T15:27:53;1.00;77.90
802;DHT22;383;48.766;9.270;2022-12-16T15:30:39;1.00;77.80
802;DHT22;383;48.766;9.270;2022-12-16T15:33:27;1.00;77.30
802;DHT22;383;48.766;9.270;2022-12-16T15:36:25;1.00;78.50
802;DHT22;383;48.766;9.270;2022-12-16T15:39:17;0.90;80.20
802;DHT22;383;48.766;9.270;2022-12-16T15:42:03;0.90;80.20
802;DHT22;383;48.766;9.270;2022-12-16T15:44:49;0.80;80.40
802;DHT22;383;48.766;9.270;2022-12-16T15:47:35;0.70;79.70
802;DHT22;383;48.766;9.270;2022-12-16T15:50:23;0.70;79.10
802;DHT22;383;48.766;9.270;2022-12-16T15:53:21;0.70;80.00
802;DHT22;383;48.766;9.270;2022-12-16T15:56:16;0.70;80.30
802;DHT22;383;48.766;9.270;2022-12-16T15:59:22;0.70;80.80
802;DHT22;383;48.766;9.270;2022-12-16T16:02:14;0.70;80.40
802;DHT22;383;48.766;9.270;2022-12-16T16:04:58;0.70;81.00
802;DHT22;383;48.766;9.270;2022-12-16T16:07:44;0.60;81.60
802;DHT22;383;48.766;9.270;2022-12-16T16:10:42;0.60;81.20
802;DHT22;383;48.766;9.270;2022-12-16T16:13:26;0.60;81.40
802;DHT22;383;48.766;9.270;2022-12-16T16:16:11;0.60;81.50
802;DHT22;383;48.766;9.270;2022-12-16T16:18:55;0.60;80.80
802;DHT22;383;48.766;9.270;2022-12-16T16:21:40;0.60;80.20
802;DHT22;383;48.766;9.270;2022-12-16T16:24:26;0.50;81.00
802;DHT22;383;48.766;9.270;2022-12-16T16:27:13;0.50;82.20
802;DHT22;383;48.766;9.270;2022-12-16T16:29:58;0.60;81.20
802;DHT22;383;48.766;9.270;2022-12-16T16:32:42;0.50;81.40
802;DHT22;383;48.766;9.270;2022-12-16T16:35:38;0.50;81.60
802;DHT22;383;48.766;9.270;2022-12-16T16:38:22;0.60;80.80
802;DHT22;383;48.766;9.270;2022-12-16T16:41:12;0.60;81.50
802;DHT22;383;48.766;9.270;2022-12-16T16:43:56;0.60;81.60
802;DHT22;383;48.766;9.270;2022-12-16T16:46:41;0.60;82.00
802;DHT22;383;48.766;9.270;2022-12-16T16:49:29;0.60;81.80
802;DHT22;383;48.766;9.270;2022-12-16T16:52:16;0.60;82.30
802;DHT22;383;48.766;9.270;2022-12-16T16:55:00;0.60;81.10
802;DHT22;383;48.766;9.270;2022-12-16T16:57:46;0.70;81.00
802;DHT22;383;48.766;9.270;2022-12-16T17:00:30;0.60;81.10
802;DHT22;383;48.766;9.270;2022-12-16T17:03:14;0.60;82.00
802;DHT22;383;48.766;9.270;2022-12-16T17:05:58;0.60;82.30
802;DHT22;383;48.766;9.270;2022-12-16T17:08:47;0.50;81.90
802;DHT22;383;48.766;9.270;2022-12-16T17:11:32;0.60;81.50
802;DHT22;383;48.766;9.270;2022-12-16T17:14:19;0.60;81.00
802;DHT22;383;48.766;9.270;2022-12-16T17:17:05;0.50;81.50
802;DHT22;383;48.766;9.270;2022-12-16T17:19:49;0.50;81.60
802;DHT22;383;48.766;9.270;2022-12-16T17:22:33;0.40;82.20
802;DHT22;383;48.766;9.270;2022-12-16T17:25:18;0.40;82.00
802;DHT22;383;48.766;9.270;2022-12-16T17:28:03;0.40;82.00
802;DHT22;383;48.766;9.270;2022-12-16T17:30:49;0.50;82.40
802;DHT22;383;48.766;9.270;2022-12-16T17:33:33;0.50;81.90
802;DHT22;383;48.766;9.270;2022-12-16T17:36:18;0.50;81.90
802;DHT22;383;48.766;9.270;2022-12-16T17:39:03;0.50;81.80
802;DHT22;383;48.766;9.270;2022-12-16T17:41:48;0.50;82.40
802;DHT22;383;48.766;9.270;2022-12-16T17:44:33;0.50;83.00
802;DHT22;383;48.766;9.270;2022-12-16T17:47:18;0.50;83.00
802;DHT22;383;48.766;9.270;2022-12-16T17:50:03;0.50;82.70
802;DHT22;383;48.766;9.270;2022-12-16T17:52:51;0.40;82.70
802;DHT22;383;48.766;9.270;2022-12-16T17:55:36;0.40;83.50
802;DHT22;383;48.766;9.270;2022-12-16T17:58:20;0.30;83.90
802;DHT22;383;48.766;9.270;2022-12-16T18:01:05;0.40;84.00
802;DHT22;383;48.766;9.270;2022-12-16T18:03:51;0.40;83.60
802;DHT22;383;48.766;9.270;2022-12-16T18:06:35;0.50;83.40
802;DHT22;383;48.766;9.270;2022-12-16T18:09:19;0.50;83.40
802;DHT22;383;48.766;9.270;2022-12-16T18:12:04;0.50;83.40
802;DHT22;383;48.766;9.270;2022-12-16T18:14:56;0.40;83.00
802;DHT22;383;48.766;9.270;2022-12-16T18:17:41;0.30;83.90
802;DHT22;383;48.766;9.270;2022-12-16T18:20:26;0.40;84.50
802;DHT22;383;48.766;9.270;2022-12-16T18:23:10;0.40;83.70
802;DHT22;383;48.766;9.270;2022-12-16T18:25:59;0.40;84.00
802;DHT22;383;48.766;9.270;2022-12-16T18:28:44;0.50;83.60
802;DHT22;383;48.766;9.270;2022-12-16T18:31:42;0.50;83.60
802;DHT22;383;48.766;9.270;2022-12-16T18:34:32;0.50;83.50
802;DHT22;383;48.766;9.270;2022-12-16T18:37:17;0.50;83.10
802;DHT22;383;48.766;9.270;2022-12-16T18:40:08;0.50;83.40
802;DHT22;383;48.766;9.270;2022-12-16T18:42:53;0.40;83.90
802;DHT22;383;48.766;9.270;2022-12-16T18:45:37;0.50;84.00
802;DHT22;383;48.766;9.270;2022-12-16T18:48:21;0.50;84.40
802;DHT22;383;48.766;9.270;2022-12-16T18:51:06;0.50;85.30
802;DHT22;383;48.766;9.270;2022-12-16T18:53:52;0.50;84.90
802;DHT22;383;48.766;9.270;2022-12-16T18:56:36;0.50;84.90